sensor_id;sensor_type;location;lat;lon;timestamp;temperature;humidity
17918;DHT22;9084;50.956;3.106;2022-12-17T00:00:45;-2.40;99.90
17918;DHT22;9084;50.956;3.106;2022-12-17T00:03:29;-2.40;99.90
17918;DHT22;9084;50.956;3.106;2022-12-17T00:06:13;-2.40;99.90
17918;DHT22;9084;50.956;3.106;2022-12-17T00:08:57;-2.40;99.90
17918;DHT22;9084;50.956;3.106;2022-12-17T00:11:41;-2.40;99.90
17918;DHT22;9084;50.956;3.106;2022-12-17T00:14:26;-2.40;99.90
17918;DHT22;9084;50.956;3.106;2022-12-17T00:17:10;-2.50;99.90
17918;DHT22;9084;50.956;3.106;2022-12-17T00:19:54;-2.50;99.90
17918;DHT22;9084;50.956;3.106;2022-12-17T00:22:38;-2.50;99.90
17918;DHT22;9084;50.956;3.106;2022-12-17T00:25:22;-2.50;99.90
17918;DHT22;9084;50.956;3.106;2022-12-17T00:28:13;-2.40;99.90
17918;DHT22;9084;50.956;3.106;2022-12-17T00:30:58;-2.60;99.90
17918;DHT22;9084;50.956;3.106;2022-12-17T00:33:42;-2.60;99.90
17918;DHT22;9084;50.956;3.106;2022-12-17T00:36:26;-2.50;99.90
17918;DHT22;9084;50.956;3.106;2022-12-17T00:39:10;-2.60;99.90
17918;DHT22;9084;50.956;3.106;2022-12-17T00:41:55;-2.50;99.90
17918;DHT22;9084;50.956;3.106;2022-12-17T00:44:42;-2.50;99.90
17918;DHT22;9084;50.956;3.106;2022-12-17T00:47:26;-2.60;99.90
17918;DHT22;9084;50.956;3.106;2022-12-17T00:50:10;-2.50;99.90
17918;DHT22;9084;50.956;3.106;2022-12-17T00:52:54;-2.60;99.90
17918;DHT22;9084;50.956;3.106;2022-12-17T00:55:38;-2.70;99.90
17918;DHT22;9084;50.956;3.106;2022-12-17T00:58:23;-2.60;99.90
17918;DHT22;9084;50.956;3.106;2022-12-17T01:01:07;-2.60;99.90
17918;DHT22;9084;50.956;3.106;2022-12-17T01:03:54;-2.60;99.90
17918;DHT22;9084;50.956;3.106;2022-12-17T01:06:39;-2.70;99.90
17918;DHT22;9084;50.956;3.106;2022-12-17T01:09:23;-2.70;99.90
17918;DHT22;9084;50.956;3.106;2022-12-17T01:12:06;-2.60;99.90
17918;DHT22;9084;50.956;3.106;2022-12-17T01:14:50;-2.70;99.90
17918;DHT22;9084;50.956;3.106;2022-12-17T01:17:34;-2.70;99.90
17918;DHT22;9084;50.956;3.106;2022-12-17T01:20:18;-2.70;99.90
17918;DHT22;9084;50.956;3.106;2022-12-17T01:23:06;-2.50;99.90
17918;DHT22;9084;50.956;3.106;2022-12-17T01:25:55;-2.40;99.90
17918;DHT22;9084;50.956;3.106;2022-12-17T01:28:39;-2.60;99.90
17918;DHT22;9084;50.956;3.106;2022-12-17T01:31:24;-2.70;99.90
17918;DHT22;9084;50.956;3.106;2022-12-17T01:34:08;-2.70;99.90
17918;DHT22;9084;50.956;3.106;2022-12-17T01:36:52;-2.70;99.90
17918;DHT22;9084;50.956;3.106;2022-12-17T01:39:36;-2.70;99.90
17918;DHT22;9084;50.956;3.106;2022-12-17T01:42:20;-2.70;99.90
17918;DHT22;9084;50.956;3.106;2022-12-17T01:45:10;-2.60;99.90
17918;DHT22;9084;50.956;3.106;2022-12-17T01:47:58;-2.70;99.90
17918;DHT22;9084;50.956;3.106;2022-12-17T01:50:48;-2.70;99.90
17918;DHT22;9084;50.956;3.106;2022-12-17T01:53:40;-2.70;99.90
17918;DHT22;9084;50.956;3.106;2022-12-17T01:56:26;-2.70;99.90
17918;DHT22;9084;50.956;3.106;2022-12-17T01:59:11;-2.60;99.90
17918;DHT22;9084;50.956;3.106;2022-12-17T02:01:56;-2.70;99.90
17918;DHT22;9084;50.956;3.106;2022-12-17T02:04:40;-2.70;99.90
17918;DHT22;9084;50.956;3.106;2022-12-17T02:07:40;-2.50;99.90
17918;DHT22;9084;50.956;3.106;2022-12-17T02:13:29;-2.70;99.90
17918;DHT22;9084;50.956;3.106;2022-12-17T02:22:36;-2.80;99.90
17918;DHT22;9084;50.956;3.106;2022-12-17T02:25:41;-2.80;99.90
17918;DHT22;9084;50.956;3.106;2022-12-17T02:28:27;-2.80;99.90
17918;DHT22;9084;50.956;3.106;2022-12-17T02:31:14;-2.70;99.90
17918;DHT22;9084;50.956;3.106;2022-12-17T02:33:59;-2.70;99.90
17918;DHT22;9084;50.956;3.106;2022-12-17T02:36:43;-2.70;99.90
17918;DHT22;9084;50.956;3.106;2022-12-17T02:39:27;-2.80;99.90
17918;DHT22;9084;50.956;3.106;2022-12-17T02:42:15;-2.80;99.90
17918;DHT22;9084;50.956;3.106;2022-12-17T02:45:19;-2.70;99.90
17918;DHT22;9084;50.956;3.106;2022-12-17T02:48:05;-2.70;99.90
17918;DHT22;9084;50.956;3.106;2022-12-17T02:50:49;-2.70;99.90
17918;DHT22;9084;50.956;3.106;2022-12-17T02:53:34;-2.70;99.90
17918;DHT22;9084;50.956;3.106;2022-12-17T02:56:18;-2.70;99.90
17918;DHT22;9084;50.956;3.106;2022-12-17T02:59:02;-2.70;99.90
17918;DHT22;9084;50.956;3.106;2022-12-17T03:01:45;-2.60;99.90
17918;DHT22;9084;50.956;3.106;2022-12-17T03:04:29;-2.70;99.90
17918;DHT22;9084;50.956;3.106;2022-12-17T03:07:13;-2.70;99.90
17918;DHT22;9084;50.956;3.106;2022-12-17T03:09:57;-2.70;99.90
17918;DHT22;9084;50.956;3.106;2022-12-17T03:12:41;-2.70;99.90
17918;DHT22;9084;50.956;3.106;2022-12-17T03:15:26;-2.80;99.90
17918;DHT22;9084;50.956;3.106;2022-12-17T03:18:10;-2.80;99.90
17918;DHT22;9084;50.956;3.106;2022-12-17T03:20:54;-2.70;99.90
17918;DHT22;9084;50.956;3.106;2022-12-17T03:23:38;-2.70;99.90
17918;DHT22;9084;50.956;3.106;2022-12-17T03:26:23;-2.70;99.90
17918;DHT22;9084;50.956;3.106;2022-12-17T03:29:09;-2.80;99.90
17918;DHT22;9084;50.956;3.106;2022-12-17T03:31:53;-2.80;99.90
17918;DHT22;9084;50.956;3.106;2022-12-17T03:34:37;-2.80;99.90
17918;DHT22;9084;50.956;3.106;2022-12-17T03:37:23;-2.80;99.90
17918;DHT22;9084;50.956;3.106;2022-12-17T03:40:08;-2.80;99.90
17918;DHT22;9084;50.956;3.106;2022-12-17T03:42:55;-2.90;99.90
17918;DHT22;9084;50.956;3.106;2022-12-17T03:45:39;-2.90;99.90
17918;DHT22;9084;50.956;3.106;2022-12-17T03:48:26;-2.90;99.90
17918;DHT22;9084;50.956;3.106;2022-12-17T03:51:10;-2.90;99.90
17918;DHT22;9084;50.956;3.106;2022-12-17T03:53:54;-2.90;99.90
17918;DHT22;9084;50.956;3.106;2022-12-17T03:56:38;-2.90;99.90
17918;DHT22;9084;50.956;3.106;2022-12-17T03:59:26;-2.90;99.90
17918;DHT22;9084;50.956;3.106;2022-12-17T04:02:10;-2.80;99.90
17918;DHT22;9084;50.956;3.106;2022-12-17T04:04:54;-2.80;99.90
17918;DHT22;9084;50.956;3.106;2022-12-17T04:07:38;-2.80;99.90
17918;DHT22;9084;50.956;3.106;2022-12-17T04:10:22;-2.80;99.90
17918;DHT22;9084;50.956;3.106;2022-12-17T04:13:06;-2.80;99.90
17918;DHT22;9084;50.956;3.106;2022-12-17T04:15:52;-2.80;99.90
17918;DHT22;9084;50.956;3.106;2022-12-17T04:18:36;-2.80;99.90
17918;DHT22;9084;50.956;3.106;2022-12-17T04:21:20;-2.80;99.90
17918;DHT22;9084;50.956;3.106;2022-12-17T04:24:04;-2.80;99.90
17918;DHT22;9084;50.956;3.106;2022-12-17T04:26:49;-2.80;99.90
17918;DHT22;9084;50.956;3.106;2022-12-17T04:29:33;-2.70;99.90
17918;DHT22;9084;50.956;3.106;2022-12-17T04:32:17;-2.70;99.90
17918;DHT22;9084;50.956;3.106;2022-12-17T04:35:00;-2.70;99.90
17918;DHT22;9084;50.956;3.106;2022-12-17T04:37:44;-2.70;99.90
17918;DHT22;9084;50.956;3.106;2022-12-17T04:40:30;-2.70;99.90
17918;DHT22;9084;50.956;3.106;2022-12-17T04:43:15;-2.70;99.90
17918;DHT22;9084;50.956;3.106;2022-12-17T04:45:59;-2.70;99.90
17918;DHT22;9084;50.956;3.106;2022-12-17T04:48:43;-2.60;99.90
17918;DHT22;9084;50.956;3.106;2022-12-17T04:51:27;-2.70;99.90
17918;DHT22;9084;50.956;3.106;2022-12-17T04:54:11;-2.70;99.90
17918;DHT22;9084;50.956;3.106;2022-12-17T04:56:56;-2.70;99.90
17918;DHT22;9084;50.956;3.106;2022-12-17T04:59:40;-2.80;99.90
17918;DHT22;9084;50.956;3.106;2022-12-17T05:02:24;-2.70;99.90
17918;DHT22;9084;50.956;3.106;2022-12-17T05:05:09;-2.70;99.90
17918;DHT22;9084;50.956;3.106;2022-12-17T05:07:54;-2.80;99.90
17918;DHT22;9084;50.956;3.106;2022-12-17T05:10:38;-2.50;99.90
17918;DHT22;9084;50.956;3.106;2022-12-17T05:13:27;-2.80;99.90
17918;DHT22;9084;50.956;3.106;2022-12-17T05:16:11;-2.80;99.90
17918;DHT22;9084;50.956;3.106;2022-12-17T05:18:55;-2.80;99.90
17918;DHT22;9084;50.956;3.106;2022-12-17T05:21:39;-2.80;99.90
17918;DHT22;9084;50.956;3.106;2022-12-17T05:24:24;-2.80;99.90
17918;DHT22;9084;50.956;3.106;2022-12-17T05:27:08;-2.80;99.90
17918;DHT22;9084;50.956;3.106;2022-12-17T05:29:55;-2.80;99.90
17918;DHT22;9084;50.956;3.106;2022-12-17T05:32:41;-2.80;99.90
17918;DHT22;9084;50.956;3.106;2022-12-17T05:35:26;-2.90;99.90
17918;DHT22;9084;50.956;3.106;2022-12-17T05:38:10;-2.90;99.90
17918;DHT22;9084;50.956;3.106;2022-12-17T05:40:56;-2.90;99.90
17918;DHT22;9084;50.956;3.106;2022-12-17T05:43:40;-2.90;99.90
17918;DHT22;9084;50.956;3.106;2022-12-17T05:46:25;-2.90;99.90
17918;DHT22;9084;50.956;3.106;2022-12-17T05:49:12;-2.90;99.90
17918;DHT22;9084;50.956;3.106;2022-12-17T05:51:56;-3.00;99.90
17918;DHT22;9084;50.956;3.106;2022-12-17T05:54:40;-3.00;99.90
17918;DHT22;9084;50.956;3.106;2022-12-17T05:57:24;-3.00;99.90
17918;DHT22;9084;50.956;3.106;2022-12-17T06:00:08;-3.00;99.90
17918;DHT22;9084;50.956;3.106;2022-12-17T06:03:00;-3.00;99.90
17918;DHT22;9084;50.956;3.106;2022-12-17T06:05:45;-3.00;99.90
17918;DHT22;9084;50.956;3.106;2022-12-17T06:08:29;-3.00;99.90
17918;DHT22;9084;50.956;3.106;2022-12-17T06:11:14;-3.10;99.90
17918;DHT22;9084;50.956;3.106;2022-12-17T06:13:58;-3.10;99.90
17918;DHT22;9084;50.956;3.106;2022-12-17T06:16:42;-3.10;99.90
17918;DHT22;9084;50.956;3.106;2022-12-17T06:19:26;-3.20;99.90
17918;DHT22;9084;50.956;3.106;2022-12-17T06:22:10;-3.20;99.90
17918;DHT22;9084;50.956;3.106;2022-12-17T06:24:54;-3.20;99.90
17918;DHT22;9084;50.956;3.106;2022-12-17T06:27:38;-3.20;99.90
17918;DHT22;9084;50.956;3.106;2022-12-17T06:30:22;-3.30;99.90
17918;DHT22;9084;50.956;3.106;2022-12-17T06:33:09;-3.30;99.90
17918;DHT22;9084;50.956;3.106;2022-12-17T06:35:55;-3.30;99.90
17918;DHT22;9084;50.956;3.106;2022-12-17T06:38:40;-3.30;99.90
17918;DHT22;9084;50.956;3.106;2022-12-17T06:41:24;-3.30;99.90
17918;DHT22;9084;50.956;3.106;2022-12-17T06:44:08;-3.40;99.90
17918;DHT22;9084;50.956;3.106;2022-12-17T06:46:52;-3.30;99.90
17918;DHT22;9084;50.956;3.106;2022-12-17T06:49:36;-3.40;99.90
17918;DHT22;9084;50.956;3.106;2022-12-17T06:52:20;-3.40;99.90
17918;DHT22;9084;50.956;3.106;2022-12-17T06:55:04;-3.40;99.90
17918;DHT22;9084;50.956;3.106;2022-12-17T06:57:58;-3.40;99.90
17918;DHT22;9084;50.956;3.106;2022-12-17T07:00:42;-3.40;99.90
17918;DHT22;9084;50.956;3.106;2022-12-17T07:03:27;-3.30;99.90
17918;DHT22;9084;50.956;3.106;2022-12-17T07:06:11;-3.40;99.90
17918;DHT22;9084;50.956;3.106;2022-12-17T07:08:54;-3.40;99.90
17918;DHT22;9084;50.956;3.106;2022-12-17T07:11:39;-3.40;99.90
17918;DHT22;9084;50.956;3.106;2022-12-17T07:14:23;-3.40;99.90
17918;DHT22;9084;50.956;3.106;2022-12-17T07:17:08;-3.40;99.90
17918;DHT22;9084;50.956;3.106;2022-12-17T07:19:51;-3.40;99.90
17918;DHT22;9084;50.956;3.106;2022-12-17T07:22:35;-3.40;99.90
17918;DHT22;9084;50.956;3.106;2022-12-17T07:25:19;-3.30;99.90
17918;DHT22;9084;50.956;3.106;2022-12-17T07:28:04;-3.30;99.90
17918;DHT22;9084;50.956;3.106;2022-12-17T07:30:48;-3.30;99.90
17918;DHT22;9084;50.956;3.106;2022-12-17T07:33:32;-3.30;99.90
17918;DHT22;9084;50.956;3.106;2022-12-17T07:36:16;-3.30;99.90
17918;DHT22;9084;50.956;3.106;2022-12-17T07:39:02;-3.20;99.90
17918;DHT22;9084;50.956;3.106;2022-12-17T07:41:46;-3.30;99.90
17918;DHT22;9084;50.956;3.106;2022-12-17T07:44:30;-3.30;99.90
17918;DHT22;9084;50.956;3.106;2022-12-17T07:47:15;-3.30;99.90
17918;DHT22;9084;50.956;3.106;2022-12-17T07:49:59;-3.30;99.90
17918;DHT22;9084;50.956;3.106;2022-12-17T07:52:43;-3.30;99.90
17918;DHT22;9084;50.956;3.106;2022-12-17T07:55:28;-3.30;99.90
17918;DHT22;9084;50.956;3.106;2022-12-17T07:58:12;-3.30;99.90
17918;DHT22;9084;50.956;3.106;2022-12-17T08:00:59;-3.20;99.90
17918;DHT22;9084;50.956;3.106;2022-12-17T08:03:44;-3.20;99.90
17918;DHT22;9084;50.956;3.106;2022-12-17T08:06:31;-3.20;99.90
17918;DHT22;9084;50.956;3.106;2022-12-17T08:09:15;-3.20;99.90
17918;DHT22;9084;50.956;3.106;2022-12-17T08:11:59;-3.20;99.90
17918;DHT22;9084;50.956;3.106;2022-12-17T08:14:43;-3.20;99.90
17918;DHT22;9084;50.956;3.106;2022-12-17T08:17:27;-3.10;99.90
17918;DHT22;9084;50.956;3.106;2022-12-17T08:20:11;-3.10;99.90
17918;DHT22;9084;50.956;3.106;2022-12-17T08:23:03;-3.10;99.90
17918;DHT22;9084;50.956;3.106;2022-12-17T08:25:47;-3.00;99.90
17918;DHT22;9084;50.956;3.106;2022-12-17T08:28:31;-3.00;99.90
17918;DHT22;9084;50.956;3.106;2022-12-17T08:31:15;-3.00;99.90
17918;DHT22;9084;50.956;3.106;2022-12-17T08:34:00;-3.00;99.90
17918;DHT22;9084;50.956;3.106;2022-12-17T08:36:46;-2.90;99.90
17918;DHT22;9084;50.956;3.106;2022-12-17T08:39:31;-2.80;99.90
17918;DHT22;9084;50.956;3.106;2022-12-17T08:42:17;-2.80;99.90
17918;DHT22;9084;50.956;3.106;2022-12-17T08:45:03;-2.80;99.90
17918;DHT22;9084;50.956;3.106;2022-12-17T08:47:47;-2.70;99.90
17918;DHT22;9084;50.956;3.106;2022-12-17T08:50:31;-2.60;99.90
17918;DHT22;9084;50.956;3.106;2022-12-17T08:53:15;-2.70;99.90
17918;DHT22;9084;50.956;3.106;2022-12-17T08:55:59;-2.70;99.90
17918;DHT22;9084;50.956;3.106;2022-12-17T08:58:43;-2.50;99.90
17918;DHT22;9084;50.956;3.106;2022-12-17T09:01:28;-2.50;99.90
17918;DHT22;9084;50.956;3.106;2022-12-17T09:04:14;-2.40;99.90
17918;DHT22;9084;50.956;3.106;2022-12-17T09:06:58;-2.40;99.90
17918;DHT22;9084;50.956;3.106;2022-12-17T09:09:42;-2.30;99.90
17918;DHT22;9084;50.956;3.106;2022-12-17T09:12:26;-2.30;99.90
17918;DHT22;9084;50.956;3.106;2022-12-17T09:15:10;-2.10;99.90
17918;DHT22;9084;50.956;3.106;2022-12-17T09:17:55;-2.20;99.90
17918;DHT22;9084;50.956;3.106;2022-12-17T09:20:39;-2.20;99.90
17918;DHT22;9084;50.956;3.106;2022-12-17T09:23:23;-2.10;99.90
17918;DHT22;9084;50.956;3.106;2022-12-17T09:26:07;-2.10;99.90
17918;DHT22;9084;50.956;3.106;2022-12-17T09:28:51;-2.10;99.90
17918;DHT22;9084;50.956;3.106;2022-12-17T09:31:35;-2.00;99.90
17918;DHT22;9084;50.956;3.106;2022-12-17T09:34:20;-1.80;99.90
17918;DHT22;9084;50.956;3.106;2022-12-17T09:37:04;-1.90;99.90
17918;DHT22;9084;50.956;3.106;2022-12-17T09:39:48;-1.90;99.90
17918;DHT22;9084;50.956;3.106;2022-12-17T09:45:30;-1.80;99.90
17918;DHT22;9084;50.956;3.106;2022-12-17T09:51:26;-1.60;99.90
17918;DHT22;9084;50.956;3.106;2022-12-17T09:54:34;-1.50;99.90
17918;DHT22;9084;50.956;3.106;2022-12-17T09:57:23;-1.50;99.90
17918;DHT22;9084;50.956;3.106;2022-12-17T10:00:20;-1.50;99.90
17918;DHT22;9084;50.956;3.106;2022-12-17T10:03:19;-1.40;99.90
17918;DHT22;9084;50.956;3.106;2022-12-17T10:06:24;-1.30;99.90
17918;DHT22;9084;50.956;3.106;2022-12-17T10:09:13;-1.10;99.90
17918;DHT22;9084;50.956;3.106;2022-12-17T10:12:11;-1.10;99.90
17918;DHT22;9084;50.956;3.106;2022-12-17T10:14:55;-1.20;99.90
17918;DHT22;9084;50.956;3.106;2022-12-17T10:17:41;-1.10;99.90
17918;DHT22;9084;50.956;3.106;2022-12-17T10:20:35;-1.00;99.90
17918;DHT22;9084;50.956;3.106;2022-12-17T10:23:30;-0.80;99.90
17918;DHT22;9084;50.956;3.106;2022-12-17T10:26:29;-1.00;99.90
17918;DHT22;9084;50.956;3.106;2022-12-17T10:29:15;-0.90;99.90
17918;DHT22;9084;50.956;3.106;2022-12-17T10:35:01;-0.90;99.90
17918;DHT22;9084;50.956;3.106;2022-12-17T10:37:50;-0.90;99.90
17918;DHT22;9084;50.956;3.106;2022-12-17T10:40:34;-0.80;99.90
17918;DHT22;9084;50.956;3.106;2022-12-17T10:43:31;-0.80;99.90
17918;DHT22;9084;50.956;3.106;2022-12-17T10:46:24;-0.70;99.90
17918;DHT22;9084;50.956;3.106;2022-12-17T10:49:17;-0.70;99.90
17918;DHT22;9084;50.956;3.106;2022-12-17T10:52:49;-0.70;99.90
17918;DHT22;9084;50.956;3.106;2022-12-17T10:55:21;-0.70;99.90
17918;DHT22;9084;50.956;3.106;2022-12-17T10:58:22;-0.70;99.90
17918;DHT22;9084;50.956;3.106;2022-12-17T11:01:09;-0.70;99.90
17918;DHT22;9084;50.956;3.106;2022-12-17T11:03:56;-0.70;99.90
17918;DHT22;9084;50.956;3.106;2022-12-17T11:07:03;-0.60;99.90
17918;DHT22;9084;50.956;3.106;2022-12-17T11:09:53;-0.60;99.90
17918;DHT22;9084;50.956;3.106;2022-12-17T11:12:46;-0.50;99.90
17918;DHT22;9084;50.956;3.106;2022-12-17T11:15:50;-0.50;99.90
17918;DHT22;9084;50.956;3.106;2022-12-17T11:21:28;-0.40;99.90
17918;DHT22;9084;50.956;3.106;2022-12-17T11:24:22;-0.50;99.90
17918;DHT22;9084;50.956;3.106;2022-12-17T11:27:11;-0.40;99.90
17918;DHT22;9084;50.956;3.106;2022-12-17T11:29:58;-0.30;99.90
17918;DHT22;9084;50.956;3.106;2022-12-17T11:36:00;-0.20;99.90
17918;DHT22;9084;50.956;3.106;2022-12-17T11:38:52;-0.30;99.90
17918;DHT22;9084;50.956;3.106;2022-12-17T11:42:06;-0.10;99.90
17918;DHT22;9084;50.956;3.106;2022-12-17T11:45:02;-0.20;99.90
17918;DHT22;9084;50.956;3.106;2022-12-17T11:48:00;-0.10;99.90
17918;DHT22;9084;50.956;3.106;2022-12-17T11:50:55;-0.10;99.90
17918;DHT22;9084;50.956;3.106;2022-12-17T11:57:07;-0.10;99.90
17918;DHT22;9084;50.956;3.106;2022-12-17T12:00:12;0.00;99.90
17918;DHT22;9084;50.956;3.106;2022-12-17T12:06:02;-0.10;99.90
17918;DHT22;9084;50.956;3.106;2022-12-17T12:09:13;0.00;99.90
17918;DHT22;9084;50.956;3.106;2022-12-17T12:12:11;0.00;99.90
17918;DHT22;9084;50.956;3.106;2022-12-17T12:18:00;0.10;99.90
17918;DHT22;9084;50.956;3.106;2022-12-17T12:21:09;0.10;99.90
17918;DHT22;9084;50.956;3.106;2022-12-17T12:30:17;0.20;99.90
17918;DHT22;9084;50.956;3.106;2022-12-17T12:33:10;0.30;99.90
17918;DHT22;9084;50.956;3.106;2022-12-17T12:36:02;0.30;99.90
17918;DHT22;9084;50.956;3.106;2022-12-17T12:38:52;0.30;99.90
17918;DHT22;9084;50.956;3.106;2022-12-17T12:44:43;0.40;99.90
17918;DHT22;9084;50.956;3.106;2022-12-17T12:53:30;0.60;99.90
17918;DHT22;9084;50.956;3.106;2022-12-17T12:56:36;0.30;99.90
17918;DHT22;9084;50.956;3.106;2022-12-17T13:02:32;0.20;99.90
17918;DHT22;9084;50.956;3.106;2022-12-17T13:10:32;0.30;99.90
17918;DHT22;9084;50.956;3.106;2022-12-17T13:13:11;0.30;99.90
17918;DHT22;9084;50.956;3.106;2022-12-17T13:15:45;0.60;99.90
17918;DHT22;9084;50.956;3.106;2022-12-17T13:18:32;0.30;99.90
17918;DHT22;9084;50.956;3.106;2022-12-17T13:21:02;0.40;99.90
17918;DHT22;9084;50.956;3.106;2022-12-17T13:23:31;0.50;99.90
17918;DHT22;9084;50.956;3.106;2022-12-17T13:28:43;0.50;99.90
17918;DHT22;9084;50.956;3.106;2022-12-17T13:31:19;0.40;99.90
17918;DHT22;9084;50.956;3.106;2022-12-17T13:34:06;0.60;99.90
17918;DHT22;9084;50.956;3.106;2022-12-17T13:42:00;0.50;99.90
17918;DHT22;9084;50.956;3.106;2022-12-17T13:44:34;0.50;99.90
17918;DHT22;9084;50.956;3.106;2022-12-17T13:47:16;0.50;99.90
17918;DHT22;9084;50.956;3.106;2022-12-17T13:49:52;0.50;99.90
17918;DHT22;9084;50.956;3.106;2022-12-17T13:52:22;0.50;99.90
17918;DHT22;9084;50.956;3.106;2022-12-17T13:54:48;0.50;99.90
17918;DHT22;9084;50.956;3.106;2022-12-17T13:57:18;0.40;99.90
17918;DHT22;9084;50.956;3.106;2022-12-17T13:59:54;0.40;99.90
17918;DHT22;9084;50.956;3.106;2022-12-17T14:02:31;0.30;99.90
17918;DHT22;9084;50.956;3.106;2022-12-17T14:05:02;0.30;99.90
17918;DHT22;9084;50.956;3.106;2022-12-17T14:07:31;0.20;99.90
17918;DHT22;9084;50.956;3.106;2022-12-17T14:09:58;0.20;99.90
17918;DHT22;9084;50.956;3.106;2022-12-17T14:12:26;0.20;99.90
17918;DHT22;9084;50.956;3.106;2022-12-17T14:15:04;0.10;99.90
17918;DHT22;9084;50.956;3.106;2022-12-17T14:17:39;0.10;99.90
17918;DHT22;9084;50.956;3.106;2022-12-17T14:20:13;0.20;99.90
17918;DHT22;9084;50.956;3.106;2022-12-17T14:22:42;0.00;99.90
17918;DHT22;9084;50.956;3.106;2022-12-17T14:25:28;-0.10;99.90
17918;DHT22;9084;50.956;3.106;2022-12-17T14:27:58;-0.10;99.90
17918;DHT22;9084;50.956;3.106;2022-12-17T14:30:38;-0.10;99.90
17918;DHT22;9084;50.956;3.106;2022-12-17T14:33:27;-0.30;99.90
17918;DHT22;9084;50.956;3.106;2022-12-17T14:36:00;-0.30;99.90
17918;DHT22;9084;50.956;3.106;2022-12-17T14:38:27;-0.40;99.90
17918;DHT22;9084;50.956;3.106;2022-12-17T14:40:53;-0.40;99.90
17918;DHT22;9084;50.956;3.106;2022-12-17T14:43:28;-0.40;99.90
17918;DHT22;9084;50.956;3.106;2022-12-17T14:45:58;-0.50;99.90
17918;DHT22;9084;50.956;3.106;2022-12-17T14:48:43;-0.50;99.90
17918;DHT22;9084;50.956;3.106;2022-12-17T14:51:33;-0.60;99.90
17918;DHT22;9084;50.956;3.106;2022-12-17T14:56:41;-0.70;99.90
17918;DHT22;9084;50.956;3.106;2022-12-17T14:59:25;-0.60;99.90
17918;DHT22;9084;50.956;3.106;2022-12-17T15:01:52;-0.80;99.90
17918;DHT22;9084;50.956;3.106;2022-12-17T15:04:19;-0.80;99.90
17918;DHT22;9084;50.956;3.106;2022-12-17T15:06:48;-0.90;99.90
17918;DHT22;9084;50.956;3.106;2022-12-17T15:09:17;-0.90;99.90
17918;DHT22;9084;50.956;3.106;2022-12-17T15:11:44;-1.00;99.90
17918;DHT22;9084;50.956;3.106;2022-12-17T15:14:09;-1.00;99.90
17918;DHT22;9084;50.956;3.106;2022-12-17T15:16:35;-1.10;99.90
17918;DHT22;9084;50.956;3.106;2022-12-17T15:19:01;-1.00;99.90
17918;DHT22;9084;50.956;3.106;2022-12-17T15:21:27;-1.00;99.90
17918;DHT22;9084;50.956;3.106;2022-12-17T15:23:55;-1.10;99.90
17918;DHT22;9084;50.956;3.106;2022-12-17T15:26:21;-1.20;99.90
17918;DHT22;9084;50.956;3.106;2022-12-17T15:28:50;-1.10;99.90
17918;DHT22;9084;50.956;3.106;2022-12-17T15:31:20;-1.20;99.90
17918;DHT22;9084;50.956;3.106;2022-12-17T15:33:46;-1.20;99.90
17918;DHT22;9084;50.956;3.106;2022-12-17T15:36:11;-1.30;99.90
17918;DHT22;9084;50.956;3.106;2022-12-17T15:38:40;-1.30;99.90
17918;DHT22;9084;50.956;3.106;2022-12-17T15:41:06;-1.30;99.90
17918;DHT22;9084;50.956;3.106;2022-12-17T15:43:50;-1.60;99.90
17918;DHT22;9084;50.956;3.106;2022-12-17T15:46:16;-1.40;99.90
17918;DHT22;9084;50.956;3.106;2022-12-17T15:48:44;-1.30;99.90
17918;DHT22;9084;50.956;3.106;2022-12-17T15:51:10;-1.30;99.90
17918;DHT22;9084;50.956;3.106;2022-12-17T15:53:37;-1.30;99.90
17918;DHT22;9084;50.956;3.106;2022-12-17T15:56:03;-1.20;99.90
17918;DHT22;9084;50.956;3.106;2022-12-17T15:58:29;-1.30;99.90
17918;DHT22;9084;50.956;3.106;2022-12-17T16:00:56;-1.20;99.90
17918;DHT22;9084;50.956;3.106;2022-12-17T16:03:24;-1.20;99.90
17918;DHT22;9084;50.956;3.106;2022-12-17T16:05:50;-1.20;99.90
17918;DHT22;9084;50.956;3.106;2022-12-17T16:08:17;-1.20;99.90
17918;DHT22;9084;50.956;3.106;2022-12-17T16:10:43;-1.20;99.90
17918;DHT22;9084;50.956;3.106;2022-12-17T16:13:11;-1.20;99.90
17918;DHT22;9084;50.956;3.106;2022-12-17T16:15:40;-1.20;99.90
17918;DHT22;9084;50.956;3.106;2022-12-17T16:18:09;-1.20;99.90
17918;DHT22;9084;50.956;3.106;2022-12-17T16:20:35;-1.10;99.90
17918;DHT22;9084;50.956;3.106;2022-12-17T16:23:01;-1.20;99.90
17918;DHT22;9084;50.956;3.106;2022-12-17T16:25:29;-1.20;99.90
17918;DHT22;9084;50.956;3.106;2022-12-17T16:27:57;-1.10;99.90
17918;DHT22;9084;50.956;3.106;2022-12-17T16:30:24;-1.30;99.90
17918;DHT22;9084;50.956;3.106;2022-12-17T16:32:50;-1.30;99.90
17918;DHT22;9084;50.956;3.106;2022-12-17T16:35:16;-1.30;99.90
17918;DHT22;9084;50.956;3.106;2022-12-17T16:37:42;-1.20;99.90
17918;DHT22;9084;50.956;3.106;2022-12-17T16:40:08;-1.20;99.90
17918;DHT22;9084;50.956;3.106;2022-12-17T16:42:34;-1.20;99.90
17918;DHT22;9084;50.956;3.106;2022-12-17T16:45:02;-1.20;99.90
17918;DHT22;9084;50.956;3.106;2022-12-17T16:47:32;-1.20;99.90
17918;DHT22;9084;50.956;3.106;2022-12-17T16:49:58;-1.10;99.90
17918;DHT22;9084;50.956;3.106;2022-12-17T16:52:23;-1.00;99.90
17918;DHT22;9084;50.956;3.106;2022-12-17T16:54:49;-1.10;99.90
17918;DHT22;9084;50.956;3.106;2022-12-17T16:57:17;-1.00;99.90
17918;DHT22;9084;50.956;3.106;2022-12-17T16:59:45;-1.00;99.90
17918;DHT22;9084;50.956;3.106;2022-12-17T17:02:13;-1.10;99.90
17918;DHT22;9084;50.956;3.106;2022-12-17T17:04:39;-1.00;99.90
17918;DHT22;9084;50.956;3.106;2022-12-17T17:07:07;-1.00;99.90
17918;DHT22;9084;50.956;3.106;2022-12-17T17:09:33;-1.00;99.90
17918;DHT22;9084;50.956;3.106;2022-12-17T17:11:59;-1.00;99.90
17918;DHT22;9084;50.956;3.106;2022-12-17T17:14:29;-1.00;99.90
17918;DHT22;9084;50.956;3.106;2022-12-17T17:16:55;-1.00;99.90
17918;DHT22;9084;50.956;3.106;2022-12-17T17:19:23;-1.00;99.90
17918;DHT22;9084;50.956;3.106;2022-12-17T17:21:52;-1.10;99.90
17918;DHT22;9084;50.956;3.106;2022-12-17T17:24:21;-1.10;99.90
17918;DHT22;9084;50.956;3.106;2022-12-17T17:26:49;-1.10;99.90
17918;DHT22;9084;50.956;3.106;2022-12-17T17:29:18;-1.20;99.90
17918;DHT22;9084;50.956;3.106;2022-12-17T17:31:46;-1.20;99.90
17918;DHT22;9084;50.956;3.106;2022-12-17T17:34:14;-1.20;99.90
17918;DHT22;9084;50.956;3.106;2022-12-17T17:36:41;-1.30;99.90
17918;DHT22;9084;50.956;3.106;2022-12-17T17:39:07;-1.30;99.90
17918;DHT22;9084;50.956;3.106;2022-12-17T17:41:34;-1.20;99.90
17918;DHT22;9084;50.956;3.106;2022-12-17T17:44:04;-1.30;99.90
17918;DHT22;9084;50.956;3.106;2022-12-17T17:46:31;-1.30;99.90
17918;DHT22;9084;50.956;3.106;2022-12-17T17:48:58;-1.30;99.90
17918;DHT22;9084;50.956;3.106;2022-12-17T17:51:28;-1.40;99.90
17918;DHT22;9084;50.956;3.106;2022-12-17T17:53:56;-1.40;99.90
17918;DHT22;9084;50.956;3.106;2022-12-17T17:56:24;-1.50;99.90
17918;DHT22;9084;50.956;3.106;2022-12-17T17:58:55;-1.40;99.90
17918;DHT22;9084;50.956;3.106;2022-12-17T18:01:26;-1.50;99.90
17918;DHT22;9084;50.956;3.106;2022-12-17T18:03:55;-1.40;99.90
17918;DHT22;9084;50.956;3.106;2022-12-17T18:06:21;-1.50;99.90
17918;DHT22;9084;50.956;3.106;2022-12-17T18:08:47;-1.50;99.90
17918;DHT22;9084;50.956;3.106;2022-12-17T18:11:15;-1.60;99.90
17918;DHT22;9084;50.956;3.106;2022-12-17T18:13:44;-1.60;99.90
17918;DHT22;9084;50.956;3.106;2022-12-17T18:18:59;-1.60;99.90
17918;DHT22;9084;50.956;3.106;2022-12-17T18:21:28;-1.60;99.90
17918;DHT22;9084;50.956;3.106;2022-12-17T18:24:19;-1.60;99.90
17918;DHT22;9084;50.956;3.106;2022-12-17T18:26:45;-1.50;99.90
17918;DHT22;9084;50.956;3.106;2022-12-17T18:29:15;-1.60;99.90